sensor_id;sensor_type;location;lat;lon;timestamp;P1;durP1;ratioP1;P2;durP2;ratioP2
73599;SDS011;61877;48.246;9.220;2023-03-23T00:00:32;7.97;;;3.40;;
73599;SDS011;61877;48.246;9.220;2023-03-23T00:02:58;7.32;;;3.33;;
73599;SDS011;61877;48.246;9.220;2023-03-23T00:05:23;7.73;;;3.30;;
73599;SDS011;61877;48.246;9.220;2023-03-23T00:07:48;7.93;;;3.70;;
73599;SDS011;61877;48.246;9.220;2023-03-23T00:10:14;8.53;;;3.30;;
73599;SDS011;61877;48.246;9.220;2023-03-23T00:12:39;8.77;;;3.58;;
73599;SDS011;61877;48.246;9.220;2023-03-23T00:15:05;8.33;;;3.70;;
73599;SDS011;61877;48.246;9.220;2023-03-23T00:17:43;8.60;;;3.40;;
73599;SDS011;61877;48.246;9.220;2023-03-23T00:20:09;7.97;;;3.63;;
73599;SDS011;61877;48.246;9.220;2023-03-23T00:22:36;7.80;;;3.47;;
73599;SDS011;61877;48.246;9.220;2023-03-23T00:25:02;8.23;;;3.28;;
73599;SDS011;61877;48.246;9.220;2023-03-23T00:27:28;8.10;;;3.47;;
73599;SDS011;61877;48.246;9.220;2023-03-23T00:29:53;7.93;;;3.37;;
73599;SDS011;61877;48.246;9.220;2023-03-23T00:32:19;8.40;;;3.50;;
73599;SDS011;61877;48.246;9.220;2023-03-23T00:34:47;10.27;;;4.00;;
73599;SDS011;61877;48.246;9.220;2023-03-23T00:37:12;8.18;;;3.78;;
73599;SDS011;61877;48.246;9.220;2023-03-23T00:39:37;8.83;;;3.90;;
73599;SDS011;61877;48.246;9.220;2023-03-23T00:42:06;8.30;;;4.10;;
73599;SDS011;61877;48.246;9.220;2023-03-23T00:44:32;9.63;;;3.60;;
73599;SDS011;61877;48.246;9.220;2023-03-23T00:46:58;10.25;;;4.45;;
73599;SDS011;61877;48.246;9.220;2023-03-23T00:49:25;11.60;;;4.53;;
73599;SDS011;61877;48.246;9.220;2023-03-23T00:51:52;10.38;;;4.43;;
73599;SDS011;61877;48.246;9.220;2023-03-23T00:54:21;10.73;;;4.45;;
73599;SDS011;61877;48.246;9.220;2023-03-23T00:56:48;10.48;;;4.28;;
73599;SDS011;61877;48.246;9.220;2023-03-23T00:59:14;9.77;;;4.30;;
73599;SDS011;61877;48.246;9.220;2023-03-23T01:01:40;8.97;;;3.87;;
73599;SDS011;61877;48.246;9.220;2023-03-23T01:04:06;9.50;;;3.97;;
73599;SDS011;61877;48.246;9.220;2023-03-23T01:06:31;10.33;;;4.23;;
73599;SDS011;61877;48.246;9.220;2023-03-23T01:09:00;9.68;;;4.32;;
73599;SDS011;61877;48.246;9.220;2023-03-23T01:11:26;10.02;;;4.65;;
73599;SDS011;61877;48.246;9.220;2023-03-23T01:13:52;9.73;;;4.30;;
73599;SDS011;61877;48.246;9.220;2023-03-23T01:16:17;9.27;;;4.43;;
73599;SDS011;61877;48.246;9.220;2023-03-23T01:18:42;9.87;;;4.20;;
73599;SDS011;61877;48.246;9.220;2023-03-23T01:21:08;9.47;;;4.40;;
73599;SDS011;61877;48.246;9.220;2023-03-23T01:23:36;9.75;;;4.13;;
73599;SDS011;61877;48.246;9.220;2023-03-23T01:26:04;9.43;;;4.30;;
73599;SDS011;61877;48.246;9.220;2023-03-23T01:28:30;11.15;;;4.10;;
73599;SDS011;61877;48.246;9.220;2023-03-23T01:30:59;10.63;;;4.00;;
73599;SDS011;61877;48.246;9.220;2023-03-23T01:33:25;9.70;;;4.40;;
73599;SDS011;61877;48.246;9.220;2023-03-23T01:35:50;10.00;;;4.40;;
73599;SDS011;61877;48.246;9.220;2023-03-23T01:38:15;9.93;;;3.97;;
73599;SDS011;61877;48.246;9.220;2023-03-23T01:40:41;12.73;;;4.30;;
73599;SDS011;61877;48.246;9.220;2023-03-23T01:45:35;11.40;;;4.82;;
73599;SDS011;61877;48.246;9.220;2023-03-23T01:48:03;10.63;;;4.67;;
73599;SDS011;61877;48.246;9.220;2023-03-23T01:50:33;11.50;;;4.75;;
73599;SDS011;61877;48.246;9.220;2023-03-23T01:53:04;10.60;;;4.50;;
73599;SDS011;61877;48.246;9.220;2023-03-23T01:55:31;10.07;;;4.65;;
73599;SDS011;61877;48.246;9.220;2023-03-23T01:57:56;11.63;;;4.80;;
73599;SDS011;61877;48.246;9.220;2023-03-23T02:00:22;10.83;;;4.77;;
73599;SDS011;61877;48.246;9.220;2023-03-23T02:02:50;9.75;;;5.00;;
73599;SDS011;61877;48.246;9.220;2023-03-23T02:05:19;11.43;;;5.10;;
73599;SDS011;61877;48.246;9.220;2023-03-23T02:07:49;13.20;;;4.95;;
73599;SDS011;61877;48.246;9.220;2023-03-23T02:10:15;11.93;;;4.90;;
73599;SDS011;61877;48.246;9.220;2023-03-23T02:12:41;11.67;;;5.13;;
73599;SDS011;61877;48.246;9.220;2023-03-23T02:15:07;11.00;;;4.43;;
73599;SDS011;61877;48.246;9.220;2023-03-23T02:17:35;10.65;;;5.10;;
73599;SDS011;61877;48.246;9.220;2023-03-23T02:20:19;12.18;;;5.32;;
73599;SDS011;61877;48.246;9.220;2023-03-23T02:25:58;13.10;;;5.37;;
73599;SDS011;61877;48.246;9.220;2023-03-23T02:28:37;11.48;;;5.03;;
73599;SDS011;61877;48.246;9.220;2023-03-23T02:31:32;11.05;;;5.05;;
73599;SDS011;61877;48.246;9.220;2023-03-23T02:34:14;11.00;;;5.38;;
73599;SDS011;61877;48.246;9.220;2023-03-23T02:36:44;11.90;;;5.35;;
73599;SDS011;61877;48.246;9.220;2023-03-23T02:39:18;12.03;;;5.40;;
73599;SDS011;61877;48.246;9.220;2023-03-23T02:41:49;10.70;;;5.10;;
73599;SDS011;61877;48.246;9.220;2023-03-23T02:44:17;11.70;;;5.05;;
73599;SDS011;61877;48.246;9.220;2023-03-23T02:46:43;13.73;;;5.13;;
73599;SDS011;61877;48.246;9.220;2023-03-23T02:49:09;10.90;;;4.73;;
73599;SDS011;61877;48.246;9.220;2023-03-23T02:51:44;10.97;;;4.87;;
73599;SDS011;61877;48.246;9.220;2023-03-23T02:54:12;9.73;;;5.10;;
73599;SDS011;61877;48.246;9.220;2023-03-23T02:56:41;10.55;;;4.82;;
73599;SDS011;61877;48.246;9.220;2023-03-23T02:59:08;9.60;;;4.43;;
73599;SDS011;61877;48.246;9.220;2023-03-23T03:04:22;11.00;;;5.20;;
73599;SDS011;61877;48.246;9.220;2023-03-23T03:06:53;11.88;;;5.05;;
73599;SDS011;61877;48.246;9.220;2023-03-23T03:09:33;11.90;;;4.83;;
73599;SDS011;61877;48.246;9.220;2023-03-23T03:12:09;10.32;;;4.68;;
73599;SDS011;61877;48.246;9.220;2023-03-23T03:14:40;9.95;;;5.20;;
73599;SDS011;61877;48.246;9.220;2023-03-23T03:17:13;11.75;;;5.03;;
73599;SDS011;61877;48.246;9.220;2023-03-23T03:19:47;11.77;;;4.93;;
73599;SDS011;61877;48.246;9.220;2023-03-23T03:22:16;12.20;;;5.07;;
73599;SDS011;61877;48.246;9.220;2023-03-23T03:24:42;10.75;;;4.97;;
73599;SDS011;61877;48.246;9.220;2023-03-23T03:27:10;12.73;;;5.13;;
73599;SDS011;61877;48.246;9.220;2023-03-23T03:29:38;10.60;;;4.85;;
73599;SDS011;61877;48.246;9.220;2023-03-23T03:32:05;10.95;;;5.00;;
73599;SDS011;61877;48.246;9.220;2023-03-23T03:34:34;10.40;;;5.07;;
73599;SDS011;61877;48.246;9.220;2023-03-23T03:37:01;13.18;;;5.50;;
73599;SDS011;61877;48.246;9.220;2023-03-23T03:39:27;10.43;;;5.47;;
73599;SDS011;61877;48.246;9.220;2023-03-23T03:41:53;11.35;;;5.13;;
73599;SDS011;61877;48.246;9.220;2023-03-23T03:44:19;11.43;;;4.80;;
73599;SDS011;61877;48.246;9.220;2023-03-23T03:46:48;11.40;;;4.80;;
73599;SDS011;61877;48.246;9.220;2023-03-23T03:49:14;9.80;;;4.30;;
73599;SDS011;61877;48.246;9.220;2023-03-23T03:51:39;9.32;;;4.50;;
73599;SDS011;61877;48.246;9.220;2023-03-23T03:54:07;11.20;;;4.60;;
73599;SDS011;61877;48.246;9.220;2023-03-23T03:56:33;9.67;;;4.27;;
73599;SDS011;61877;48.246;9.220;2023-03-23T03:59:00;10.23;;;5.07;;
73599;SDS011;61877;48.246;9.220;2023-03-23T04:01:26;10.68;;;4.78;;
73599;SDS011;61877;48.246;9.220;2023-03-23T04:03:52;10.53;;;4.70;;
73599;SDS011;61877;48.246;9.220;2023-03-23T04:06:18;12.38;;;4.50;;
73599;SDS011;61877;48.246;9.220;2023-03-23T04:08:45;9.95;;;4.70;;
73599;SDS011;61877;48.246;9.220;2023-03-23T04:11:13;9.57;;;4.43;;
73599;SDS011;61877;48.246;9.220;2023-03-23T04:13:39;10.07;;;4.57;;
73599;SDS011;61877;48.246;9.220;2023-03-23T04:16:06;8.18;;;3.95;;
73599;SDS011;61877;48.246;9.220;2023-03-23T04:18:32;10.33;;;4.43;;
73599;SDS011;61877;48.246;9.220;2023-03-23T04:21:00;9.35;;;4.18;;
73599;SDS011;61877;48.246;9.220;2023-03-23T04:23:28;11.40;;;4.57;;
73599;SDS011;61877;48.246;9.220;2023-03-23T04:25:55;9.50;;;4.50;;
73599;SDS011;61877;48.246;9.220;2023-03-23T04:28:22;8.93;;;4.33;;
73599;SDS011;61877;48.246;9.220;2023-03-23T04:30:49;10.40;;;4.38;;
73599;SDS011;61877;48.246;9.220;2023-03-23T04:33:15;11.43;;;4.80;;
73599;SDS011;61877;48.246;9.220;2023-03-23T04:35:41;10.33;;;4.50;;
73599;SDS011;61877;48.246;9.220;2023-03-23T04:38:07;11.02;;;4.28;;
73599;SDS011;61877;48.246;9.220;2023-03-23T04:40:35;9.05;;;4.50;;
73599;SDS011;61877;48.246;9.220;2023-03-23T04:43:04;14.57;;;6.33;;
73599;SDS011;61877;48.246;9.220;2023-03-23T04:45:31;10.43;;;4.97;;
73599;SDS011;61877;48.246;9.220;2023-03-23T04:47:58;10.02;;;4.55;;
73599;SDS011;61877;48.246;9.220;2023-03-23T04:50:27;9.85;;;4.30;;
73599;SDS011;61877;48.246;9.220;2023-03-23T04:52:54;10.57;;;4.23;;
73599;SDS011;61877;48.246;9.220;2023-03-23T04:55:20;8.32;;;4.05;;
73599;SDS011;61877;48.246;9.220;2023-03-23T04:57:45;11.20;;;4.40;;
73599;SDS011;61877;48.246;9.220;2023-03-23T05:00:17;9.70;;;4.00;;
73599;SDS011;61877;48.246;9.220;2023-03-23T05:02:45;8.93;;;4.10;;
73599;SDS011;61877;48.246;9.220;2023-03-23T05:05:14;8.73;;;3.72;;
73599;SDS011;61877;48.246;9.220;2023-03-23T05:07:39;10.00;;;4.17;;
73599;SDS011;61877;48.246;9.220;2023-03-23T05:10:09;12.30;;;4.10;;
73599;SDS011;61877;48.246;9.220;2023-03-23T05:12:38;8.43;;;3.65;;
73599;SDS011;61877;48.246;9.220;2023-03-23T05:15:08;9.82;;;3.60;;
73599;SDS011;61877;48.246;9.220;2023-03-23T05:17:35;9.95;;;4.30;;
73599;SDS011;61877;48.246;9.220;2023-03-23T05:20:04;8.43;;;3.97;;
73599;SDS011;61877;48.246;9.220;2023-03-23T05:22:32;8.23;;;3.63;;
73599;SDS011;61877;48.246;9.220;2023-03-23T05:24:58;8.85;;;4.20;;
73599;SDS011;61877;48.246;9.220;2023-03-23T05:27:24;8.50;;;4.23;;
73599;SDS011;61877;48.246;9.220;2023-03-23T05:29:49;8.32;;;3.70;;
73599;SDS011;61877;48.246;9.220;2023-03-23T05:32:15;9.17;;;4.13;;
73599;SDS011;61877;48.246;9.220;2023-03-23T05:34:41;8.57;;;4.03;;
73599;SDS011;61877;48.246;9.220;2023-03-23T05:37:08;7.70;;;3.80;;
73599;SDS011;61877;48.246;9.220;2023-03-23T05:39:34;9.65;;;4.10;;
73599;SDS011;61877;48.246;9.220;2023-03-23T05:41:59;9.47;;;4.17;;
73599;SDS011;61877;48.246;9.220;2023-03-23T05:44:25;12.68;;;5.55;;
73599;SDS011;61877;48.246;9.220;2023-03-23T05:46:56;10.10;;;3.63;;
73599;SDS011;61877;48.246;9.220;2023-03-23T05:49:24;8.60;;;3.50;;
73599;SDS011;61877;48.246;9.220;2023-03-23T05:51:53;8.65;;;3.38;;
73599;SDS011;61877;48.246;9.220;2023-03-23T05:54:20;9.43;;;3.90;;
73599;SDS011;61877;48.246;9.220;2023-03-23T05:56:45;10.77;;;3.88;;
73599;SDS011;61877;48.246;9.220;2023-03-23T05:59:11;8.77;;;3.60;;
73599;SDS011;61877;48.246;9.220;2023-03-23T06:01:37;12.20;;;4.10;;
73599;SDS011;61877;48.246;9.220;2023-03-23T06:04:03;7.80;;;3.70;;
73599;SDS011;61877;48.246;9.220;2023-03-23T06:06:29;10.05;;;3.90;;
73599;SDS011;61877;48.246;9.220;2023-03-23T06:09:01;8.52;;;4.00;;
73599;SDS011;61877;48.246;9.220;2023-03-23T06:11:29;9.98;;;3.85;;
73599;SDS011;61877;48.246;9.220;2023-03-23T06:14:04;8.40;;;3.87;;
73599;SDS011;61877;48.246;9.220;2023-03-23T06:16:29;11.30;;;4.28;;
73599;SDS011;61877;48.246;9.220;2023-03-23T06:19:01;15.03;;;4.40;;
73599;SDS011;61877;48.246;9.220;2023-03-23T06:21:26;11.20;;;4.57;;
73599;SDS011;61877;48.246;9.220;2023-03-23T06:23:52;10.85;;;4.60;;
73599;SDS011;61877;48.246;9.220;2023-03-23T06:26:18;10.63;;;4.20;;
73599;SDS011;61877;48.246;9.220;2023-03-23T06:28:55;11.65;;;4.35;;
73599;SDS011;61877;48.246;9.220;2023-03-23T06:31:27;14.85;;;5.93;;
73599;SDS011;61877;48.246;9.220;2023-03-23T06:34:01;14.95;;;6.07;;
73599;SDS011;61877;48.246;9.220;2023-03-23T06:36:27;15.17;;;6.00;;
73599;SDS011;61877;48.246;9.220;2023-03-23T06:38:53;14.00;;;6.22;;
73599;SDS011;61877;48.246;9.220;2023-03-23T06:53:23;9.00;;;4.18;;
73599;SDS011;61877;48.246;9.220;2023-03-23T06:58:36;8.57;;;3.70;;
73599;SDS011;61877;48.246;9.220;2023-03-23T07:04:24;8.57;;;3.85;;
73599;SDS011;61877;48.246;9.220;2023-03-23T07:06:50;9.60;;;3.33;;
73599;SDS011;61877;48.246;9.220;2023-03-23T07:09:36;8.02;;;3.40;;
73599;SDS011;61877;48.246;9.220;2023-03-23T07:12:06;8.10;;;3.60;;
73599;SDS011;61877;48.246;9.220;2023-03-23T07:14:34;8.07;;;3.45;;
73599;SDS011;61877;48.246;9.220;2023-03-23T07:20:07;10.97;;;3.70;;
73599;SDS011;61877;48.246;9.220;2023-03-23T07:22:34;8.90;;;4.00;;
73599;SDS011;61877;48.246;9.220;2023-03-23T07:25:01;8.02;;;3.70;;
73599;SDS011;61877;48.246;9.220;2023-03-23T07:27:27;8.03;;;3.60;;
73599;SDS011;61877;48.246;9.220;2023-03-23T07:29:54;9.27;;;4.13;;
73599;SDS011;61877;48.246;9.220;2023-03-23T07:32:19;9.82;;;4.15;;
73599;SDS011;61877;48.246;9.220;2023-03-23T07:34:45;8.02;;;3.80;;
73599;SDS011;61877;48.246;9.220;2023-03-23T07:37:16;9.38;;;4.10;;
73599;SDS011;61877;48.246;9.220;2023-03-23T07:39:43;8.00;;;3.97;;
73599;SDS011;61877;48.246;9.220;2023-03-23T07:47:45;7.80;;;3.40;;
73599;SDS011;61877;48.246;9.220;2023-03-23T07:50:11;9.35;;;3.55;;
73599;SDS011;61877;48.246;9.220;2023-03-23T07:52:38;8.13;;;3.35;;
73599;SDS011;61877;48.246;9.220;2023-03-23T07:57:45;7.77;;;3.23;;
73599;SDS011;61877;48.246;9.220;2023-03-23T08:03:17;8.75;;;3.67;;
73599;SDS011;61877;48.246;9.220;2023-03-23T08:05:43;8.05;;;3.40;;
73599;SDS011;61877;48.246;9.220;2023-03-23T08:08:11;7.63;;;3.50;;
73599;SDS011;61877;48.246;9.220;2023-03-23T08:13:30;8.35;;;4.00;;
73599;SDS011;61877;48.246;9.220;2023-03-23T08:15:56;9.95;;;3.97;;
73599;SDS011;61877;48.246;9.220;2023-03-23T08:18:24;11.98;;;4.40;;
73599;SDS011;61877;48.246;9.220;2023-03-23T08:20:50;8.13;;;3.80;;
73599;SDS011;61877;48.246;9.220;2023-03-23T08:29:03;8.00;;;3.70;;
73599;SDS011;61877;48.246;9.220;2023-03-23T08:40:03;8.23;;;2.70;;
73599;SDS011;61877;48.246;9.220;2023-03-23T08:43:09;7.13;;;2.70;;
73599;SDS011;61877;48.246;9.220;2023-03-23T08:45:36;7.80;;;3.00;;
73599;SDS011;61877;48.246;9.220;2023-03-23T08:51:07;9.73;;;4.20;;
73599;SDS011;61877;48.246;9.220;2023-03-23T08:53:52;8.90;;;4.40;;
73599;SDS011;61877;48.246;9.220;2023-03-23T08:56:18;11.35;;;5.43;;
73599;SDS011;61877;48.246;9.220;2023-03-23T08:58:55;10.17;;;4.63;;
73599;SDS011;61877;48.246;9.220;2023-03-23T09:01:28;9.60;;;4.57;;
73599;SDS011;61877;48.246;9.220;2023-03-23T09:03:57;8.02;;;3.38;;
73599;SDS011;61877;48.246;9.220;2023-03-23T09:12:10;7.37;;;2.87;;
73599;SDS011;61877;48.246;9.220;2023-03-23T09:14:43;7.80;;;2.97;;
73599;SDS011;61877;48.246;9.220;2023-03-23T09:17:47;8.85;;;2.95;;
73599;SDS011;61877;48.246;9.220;2023-03-23T09:20:23;7.45;;;2.42;;
73599;SDS011;61877;48.246;9.220;2023-03-23T09:23:10;6.65;;;2.20;;
73599;SDS011;61877;48.246;9.220;2023-03-23T09:25:54;6.20;;;2.10;;
73599;SDS011;61877;48.246;9.220;2023-03-23T09:28:21;5.70;;;1.92;;
73599;SDS011;61877;48.246;9.220;2023-03-23T09:30:47;6.10;;;2.45;;
73599;SDS011;61877;48.246;9.220;2023-03-23T09:33:43;7.47;;;3.00;;
73599;SDS011;61877;48.246;9.220;2023-03-23T09:36:17;10.95;;;2.10;;
73599;SDS011;61877;48.246;9.220;2023-03-23T09:38:42;5.78;;;2.10;;
73599;SDS011;61877;48.246;9.220;2023-03-23T09:41:11;6.60;;;2.10;;
73599;SDS011;61877;48.246;9.220;2023-03-23T09:43:55;6.95;;;2.30;;
73599;SDS011;61877;48.246;9.220;2023-03-23T09:46:35;6.05;;;2.10;;
73599;SDS011;61877;48.246;9.220;2023-03-23T09:49:21;5.93;;;1.90;;
73599;SDS011;61877;48.246;9.220;2023-03-23T09:51:59;8.03;;;2.30;;
73599;SDS011;61877;48.246;9.220;2023-03-23T09:54:41;5.72;;;2.17;;
73599;SDS011;61877;48.246;9.220;2023-03-23T09:57:15;5.95;;;2.25;;
73599;SDS011;61877;48.246;9.220;2023-03-23T09:59:54;7.32;;;2.47;;
73599;SDS011;61877;48.246;9.220;2023-03-23T10:02:52;7.03;;;1.90;;
73599;SDS011;61877;48.246;9.220;2023-03-23T10:05:51;6.13;;;1.93;;
73599;SDS011;61877;48.246;9.220;2023-03-23T10:08:20;7.15;;;2.00;;
73599;SDS011;61877;48.246;9.220;2023-03-23T10:11:11;6.00;;;2.00;;
73599;SDS011;61877;48.246;9.220;2023-03-23T10:14:05;6.75;;;2.28;;
73599;SDS011;61877;48.246;9.220;2023-03-23T10:16:54;6.18;;;2.10;;
73599;SDS011;61877;48.246;9.220;2023-03-23T10:19:26;5.50;;;2.10;;
73599;SDS011;61877;48.246;9.220;2023-03-23T10:22:02;5.40;;;1.80;;
73599;SDS011;61877;48.246;9.220;2023-03-23T10:24:31;6.65;;;2.00;;
73599;SDS011;61877;48.246;9.220;2023-03-23T10:27:26;5.75;;;2.20;;
73599;SDS011;61877;48.246;9.220;2023-03-23T10:30:21;6.13;;;2.17;;
73599;SDS011;61877;48.246;9.220;2023-03-23T10:33:00;5.67;;;1.93;;
73599;SDS011;61877;48.246;9.220;2023-03-23T10:35:45;6.10;;;2.00;;
73599;SDS011;61877;48.246;9.220;2023-03-23T10:38:31;7.13;;;2.20;;
73599;SDS011;61877;48.246;9.220;2023-03-23T10:41:22;6.78;;;2.20;;
73599;SDS011;61877;48.246;9.220;2023-03-23T10:44:15;7.45;;;2.25;;
73599;SDS011;61877;48.246;9.220;2023-03-23T10:46:45;5.80;;;2.10;;
73599;SDS011;61877;48.246;9.220;2023-03-23T10:49:22;6.55;;;2.20;;
73599;SDS011;61877;48.246;9.220;2023-03-23T10:51:55;5.88;;;1.95;;
73599;SDS011;61877;48.246;9.220;2023-03-23T10:54:31;7.50;;;2.50;;
73599;SDS011;61877;48.246;9.220;2023-03-23T10:57:17;6.65;;;2.42;;
73599;SDS011;61877;48.246;9.220;2023-03-23T10:59:46;6.10;;;2.00;;
73599;SDS011;61877;48.246;9.220;2023-03-23T11:02:14;7.00;;;2.50;;
73599;SDS011;61877;48.246;9.220;2023-03-23T11:04:47;6.80;;;2.50;;
73599;SDS011;61877;48.246;9.220;2023-03-23T11:07:40;6.30;;;2.60;;
73599;SDS011;61877;48.246;9.220;2023-03-23T11:10:33;6.57;;;2.50;;
73599;SDS011;61877;48.246;9.220;2023-03-23T11:13:01;6.50;;;2.03;;
73599;SDS011;61877;48.246;9.220;2023-03-23T11:15:30;7.10;;;2.33;;
73599;SDS011;61877;48.246;9.220;2023-03-23T11:18:04;6.45;;;1.98;;
73599;SDS011;61877;48.246;9.220;2023-03-23T11:20:34;6.57;;;2.58;;
73599;SDS011;61877;48.246;9.220;2023-03-23T11:23:01;6.70;;;2.05;;
73599;SDS011;61877;48.246;9.220;2023-03-23T11:28:47;7.07;;;2.33;;
73599;SDS011;61877;48.246;9.220;2023-03-23T11:31:20;6.10;;;2.25;;
73599;SDS011;61877;48.246;9.220;2023-03-23T11:36:40;5.97;;;2.17;;
73599;SDS011;61877;48.246;9.220;2023-03-23T11:39:23;5.80;;;1.93;;
73599;SDS011;61877;48.246;9.220;2023-03-23T11:41:58;5.85;;;1.90;;
73599;SDS011;61877;48.246;9.220;2023-03-23T11:44:31;5.85;;;1.95;;
73599;SDS011;61877;48.246;9.220;2023-03-23T11:47:02;6.57;;;2.15;;
73599;SDS011;61877;48.246;9.220;2023-03-23T11:49:37;7.03;;;2.30;;
73599;SDS011;61877;48.246;9.220;2023-03-23T11:52:21;6.33;;;2.23;;
73599;SDS011;61877;48.246;9.220;2023-03-23T11:55:07;6.43;;;2.25;;
73599;SDS011;61877;48.246;9.220;2023-03-23T11:57:40;6.72;;;2.47;;
73599;SDS011;61877;48.246;9.220;2023-03-23T12:00:15;6.95;;;2.88;;
73599;SDS011;61877;48.246;9.220;2023-03-23T12:03:03;8.45;;;2.40;;
73599;SDS011;61877;48.246;9.220;2023-03-23T12:05:44;6.40;;;2.37;;
73599;SDS011;61877;48.246;9.220;2023-03-23T12:08:30;6.22;;;2.50;;
73599;SDS011;61877;48.246;9.220;2023-03-23T12:11:23;10.75;;;5.50;;
73599;SDS011;61877;48.246;9.220;2023-03-23T12:14:00;6.63;;;2.60;;
73599;SDS011;61877;48.246;9.220;2023-03-23T12:16:47;6.53;;;2.20;;
73599;SDS011;61877;48.246;9.220;2023-03-23T12:19:29;6.27;;;2.27;;
73599;SDS011;61877;48.246;9.220;2023-03-23T12:22:15;5.70;;;2.22;;
73599;SDS011;61877;48.246;9.220;2023-03-23T12:24:53;6.10;;;2.20;;
73599;SDS011;61877;48.246;9.220;2023-03-23T12:27:42;6.75;;;2.40;;
73599;SDS011;61877;48.246;9.220;2023-03-23T12:30:28;6.07;;;2.20;;
73599;SDS011;61877;48.246;9.220;2023-03-23T12:33:33;6.17;;;2.10;;
73599;SDS011;61877;48.246;9.220;2023-03-23T12:36:10;6.47;;;2.30;;
73599;SDS011;61877;48.246;9.220;2023-03-23T12:38:46;6.13;;;2.10;;
73599;SDS011;61877;48.246;9.220;2023-03-23T12:41:44;6.78;;;2.42;;
73599;SDS011;61877;48.246;9.220;2023-03-23T12:44:23;6.70;;;2.40;;
73599;SDS011;61877;48.246;9.220;2023-03-23T12:49:59;6.15;;;2.60;;
73599;SDS011;61877;48.246;9.220;2023-03-23T12:52:59;6.13;;;2.30;;
73599;SDS011;61877;48.246;9.220;2023-03-23T12:55:48;6.25;;;2.53;;
73599;SDS011;61877;48.246;9.220;2023-03-23T12:58:24;5.90;;;2.17;;
73599;SDS011;61877;48.246;9.220;2023-03-23T13:00:59;5.87;;;2.20;;
73599;SDS011;61877;48.246;9.220;2023-03-23T13:03:45;9.98;;;2.20;;
73599;SDS011;61877;48.246;9.220;2023-03-23T13:06:41;6.50;;;2.03;;
73599;SDS011;61877;48.246;9.220;2023-03-23T13:09:35;8.95;;;2.90;;
73599;SDS011;61877;48.246;9.220;2023-03-23T13:12:09;8.35;;;2.90;;
73599;SDS011;61877;48.246;9.220;2023-03-23T13:14:41;6.80;;;2.73;;
73599;SDS011;61877;48.246;9.220;2023-03-23T13:17:21;9.30;;;4.05;;
73599;SDS011;61877;48.246;9.220;2023-03-23T13:19:59;6.22;;;2.08;;
73599;SDS011;61877;48.246;9.220;2023-03-23T13:22:54;7.57;;;2.53;;
73599;SDS011;61877;48.246;9.220;2023-03-23T13:25:42;10.05;;;2.40;;
73599;SDS011;61877;48.246;9.220;2023-03-23T13:28:17;6.30;;;2.20;;
73599;SDS011;61877;48.246;9.220;2023-03-23T13:31:29;7.00;;;2.50;;
73599;SDS011;61877;48.246;9.220;2023-03-23T13:40:13;6.20;;;2.20;;
73599;SDS011;61877;48.246;9.220;2023-03-23T13:43:02;8.43;;;2.53;;
73599;SDS011;61877;48.246;9.220;2023-03-23T13:50:52;6.82;;;2.60;;
73599;SDS011;61877;48.246;9.220;2023-03-23T13:56:35;7.90;;;2.43;;
73599;SDS011;61877;48.246;9.220;2023-03-23T13:59:27;7.53;;;2.55;;
73599;SDS011;61877;48.246;9.220;2023-03-23T14:14:01;6.60;;;2.50;;
73599;SDS011;61877;48.246;9.220;2023-03-23T14:16:52;6.75;;;2.72;;
73599;SDS011;61877;48.246;9.220;2023-03-23T14:19:28;6.53;;;2.63;;
73599;SDS011;61877;48.246;9.220;2023-03-23T14:22:01;7.32;;;2.85;;
73599;SDS011;61877;48.246;9.220;2023-03-23T14:24:31;6.53;;;2.50;;
73599;SDS011;61877;48.246;9.220;2023-03-23T14:27:08;6.28;;;2.60;;
73599;SDS011;61877;48.246;9.220;2023-03-23T14:29:38;7.63;;;2.67;;
73599;SDS011;61877;48.246;9.220;2023-03-23T14:32:10;6.60;;;2.50;;
73599;SDS011;61877;48.246;9.220;2023-03-23T14:38:18;6.95;;;2.40;;
73599;SDS011;61877;48.246;9.220;2023-03-23T14:41:04;7.03;;;2.70;;
73599;SDS011;61877;48.246;9.220;2023-03-23T14:43:45;7.00;;;2.90;;
73599;SDS011;61877;48.246;9.220;2023-03-23T14:46:19;7.10;;;2.80;;
73599;SDS011;61877;48.246;9.220;2023-03-23T14:48:45;7.10;;;2.80;;
73599;SDS011;61877;48.246;9.220;2023-03-23T14:56:51;6.68;;;2.75;;
73599;SDS011;61877;48.246;9.220;2023-03-23T15:21:28;6.97;;;2.80;;
73599;SDS011;61877;48.246;9.220;2023-03-23T15:24:01;8.15;;;3.10;;
73599;SDS011;61877;48.246;9.220;2023-03-23T15:32:38;10.32;;;5.35;;
73599;SDS011;61877;48.246;9.220;2023-03-23T15:35:44;7.33;;;2.63;;
73599;SDS011;61877;48.246;9.220;2023-03-23T15:38:17;7.32;;;2.60;;
73599;SDS011;61877;48.246;9.220;2023-03-23T15:40:48;6.88;;;2.95;;
73599;SDS011;61877;48.246;9.220;2023-03-23T15:43:15;7.28;;;3.00;;
73599;SDS011;61877;48.246;9.220;2023-03-23T15:45:55;7.38;;;3.40;;
73599;SDS011;61877;48.246;9.220;2023-03-23T15:48:23;7.23;;;2.80;;
73599;SDS011;61877;48.246;9.220;2023-03-23T15:50:49;9.35;;;2.88;;
73599;SDS011;61877;48.246;9.220;2023-03-23T15:58:51;7.60;;;2.90;;
73599;SDS011;61877;48.246;9.220;2023-03-23T16:17:43;7.72;;;2.80;;
73599;SDS011;61877;48.246;9.220;2023-03-23T16:20:12;7.70;;;2.95;;
73599;SDS011;61877;48.246;9.220;2023-03-23T16:25:30;7.03;;;2.67;;
73599;SDS011;61877;48.246;9.220;2023-03-23T16:27:55;6.72;;;2.70;;
73599;SDS011;61877;48.246;9.220;2023-03-23T16:42:24;7.55;;;3.47;;
73599;SDS011;61877;48.246;9.220;2023-03-23T16:44:49;6.97;;;3.00;;
73599;SDS011;61877;48.246;9.220;2023-03-23T16:47:15;8.43;;;3.30;;
73599;SDS011;61877;48.246;9.220;2023-03-23T16:49:44;7.40;;;3.20;;
73599;SDS011;61877;48.246;9.220;2023-03-23T16:52:10;8.70;;;3.22;;
73599;SDS011;61877;48.246;9.220;2023-03-23T16:57:40;7.80;;;3.20;;
73599;SDS011;61877;48.246;9.220;2023-03-23T17:00:08;6.87;;;3.07;;
73599;SDS011;61877;48.246;9.220;2023-03-23T17:05:38;8.38;;;3.10;;
73599;SDS011;61877;48.246;9.220;2023-03-23T17:11:10;6.90;;;2.95;;
73599;SDS011;61877;48.246;9.220;2023-03-23T17:13:40;7.87;;;3.00;;
73599;SDS011;61877;48.246;9.220;2023-03-23T17:16:16;6.70;;;2.90;;
73599;SDS011;61877;48.246;9.220;2023-03-23T17:21:44;8.45;;;3.30;;
73599;SDS011;61877;48.246;9.220;2023-03-23T17:24:13;8.47;;;3.10;;
73599;SDS011;61877;48.246;9.220;2023-03-23T17:26:39;7.43;;;2.93;;
73599;SDS011;61877;48.246;9.220;2023-03-23T17:29:07;7.30;;;2.80;;
73599;SDS011;61877;48.246;9.220;2023-03-23T17:31:32;7.15;;;2.70;;
73599;SDS011;61877;48.246;9.220;2023-03-23T17:33:58;7.50;;;3.00;;
73599;SDS011;61877;48.246;9.220;2023-03-23T17:36:24;6.80;;;2.95;;
73599;SDS011;61877;48.246;9.220;2023-03-23T17:38:49;6.83;;;2.87;;
73599;SDS011;61877;48.246;9.220;2023-03-23T17:41:16;8.37;;;3.03;;
73599;SDS011;61877;48.246;9.220;2023-03-23T17:43:42;8.40;;;2.88;;
73599;SDS011;61877;48.246;9.220;2023-03-23T17:46:09;7.68;;;2.90;;
73599;SDS011;61877;48.246;9.220;2023-03-23T17:48:35;7.20;;;2.87;;
73599;SDS011;61877;48.246;9.220;2023-03-23T17:51:01;7.97;;;3.40;;
73599;SDS011;61877;48.246;9.220;2023-03-23T17:53:30;8.13;;;3.15;;
73599;SDS011;61877;48.246;9.220;2023-03-23T17:55:56;9.77;;;3.53;;
73599;SDS011;61877;48.246;9.220;2023-03-23T17:58:22;7.73;;;3.40;;
73599;SDS011;61877;48.246;9.220;2023-03-23T18:00:49;7.10;;;3.03;;
73599;SDS011;61877;48.246;9.220;2023-03-23T18:03:16;7.68;;;3.47;;
73599;SDS011;61877;48.246;9.220;2023-03-23T18:05:41;7.70;;;3.17;;
73599;SDS011;61877;48.246;9.220;2023-03-23T18:08:07;7.72;;;3.15;;
73599;SDS011;61877;48.246;9.220;2023-03-23T18:10:34;7.85;;;3.17;;
73599;SDS011;61877;48.246;9.220;2023-03-23T18:13:01;7.17;;;2.90;;
73599;SDS011;61877;48.246;9.220;2023-03-23T18:15:27;8.68;;;3.03;;
73599;SDS011;61877;48.246;9.220;2023-03-23T18:17:54;7.03;;;3.00;;
73599;SDS011;61877;48.246;9.220;2023-03-23T18:20:21;8.30;;;3.78;;